sensor_id;sensor_type;location;lat;lon;timestamp;P1;durP1;ratioP1;P2;durP2;ratioP2
13441;SDS011;6793;55.662;13.114;2024-03-25T00:00:19;0.90;;;0.90;;
13441;SDS011;6793;55.662;13.114;2024-03-25T00:02:47;0.80;;;0.80;;
13441;SDS011;6793;55.662;13.114;2024-03-25T00:05:14;0.80;;;0.80;;
13441;SDS011;6793;55.662;13.114;2024-03-25T00:07:47;0.80;;;0.80;;
13441;SDS011;6793;55.662;13.114;2024-03-25T00:10:13;0.80;;;0.80;;
13441;SDS011;6793;55.662;13.114;2024-03-25T00:12:40;0.80;;;0.80;;
13441;SDS011;6793;55.662;13.114;2024-03-25T00:15:06;0.80;;;0.80;;
13441;SDS011;6793;55.662;13.114;2024-03-25T00:17:35;0.80;;;0.80;;
13441;SDS011;6793;55.662;13.114;2024-03-25T00:20:01;0.80;;;0.80;;
13441;SDS011;6793;55.662;13.114;2024-03-25T00:22:31;0.90;;;0.90;;
13441;SDS011;6793;55.662;13.114;2024-03-25T00:24:57;0.80;;;0.80;;
13441;SDS011;6793;55.662;13.114;2024-03-25T00:27:24;0.80;;;0.80;;
13441;SDS011;6793;55.662;13.114;2024-03-25T00:29:50;0.80;;;0.80;;
13441;SDS011;6793;55.662;13.114;2024-03-25T00:32:17;1.00;;;1.00;;
13441;SDS011;6793;55.662;13.114;2024-03-25T00:34:44;0.80;;;0.80;;
13441;SDS011;6793;55.662;13.114;2024-03-25T00:37:12;0.80;;;0.80;;
13441;SDS011;6793;55.662;13.114;2024-03-25T00:39:38;0.80;;;0.80;;
13441;SDS011;6793;55.662;13.114;2024-03-25T00:42:05;0.80;;;0.80;;
13441;SDS011;6793;55.662;13.114;2024-03-25T00:44:31;0.90;;;0.90;;
13441;SDS011;6793;55.662;13.114;2024-03-25T00:46:58;0.80;;;0.80;;
13441;SDS011;6793;55.662;13.114;2024-03-25T00:49:24;0.80;;;0.80;;
13441;SDS011;6793;55.662;13.114;2024-03-25T00:51:53;0.80;;;0.80;;
13441;SDS011;6793;55.662;13.114;2024-03-25T00:54:19;0.90;;;0.90;;
13441;SDS011;6793;55.662;13.114;2024-03-25T00:56:46;0.90;;;0.90;;
13441;SDS011;6793;55.662;13.114;2024-03-25T00:59:12;0.90;;;0.90;;
13441;SDS011;6793;55.662;13.114;2024-03-25T01:01:39;0.90;;;0.90;;
13441;SDS011;6793;55.662;13.114;2024-03-25T01:04:05;0.80;;;0.80;;
13441;SDS011;6793;55.662;13.114;2024-03-25T01:06:32;0.80;;;0.80;;
13441;SDS011;6793;55.662;13.114;2024-03-25T01:09:00;0.90;;;0.90;;
13441;SDS011;6793;55.662;13.114;2024-03-25T01:11:28;0.80;;;0.80;;
13441;SDS011;6793;55.662;13.114;2024-03-25T01:13:55;0.80;;;0.80;;
13441;SDS011;6793;55.662;13.114;2024-03-25T01:16:22;0.80;;;0.80;;
13441;SDS011;6793;55.662;13.114;2024-03-25T01:18:48;0.80;;;0.80;;
13441;SDS011;6793;55.662;13.114;2024-03-25T01:21:15;0.80;;;0.80;;
13441;SDS011;6793;55.662;13.114;2024-03-25T01:23:41;0.80;;;0.80;;
13441;SDS011;6793;55.662;13.114;2024-03-25T01:26:09;0.80;;;0.80;;
13441;SDS011;6793;55.662;13.114;2024-03-25T01:28:35;0.80;;;0.80;;
13441;SDS011;6793;55.662;13.114;2024-03-25T01:31:02;0.73;;;0.73;;
13441;SDS011;6793;55.662;13.114;2024-03-25T01:33:29;0.80;;;0.80;;
13441;SDS011;6793;55.662;13.114;2024-03-25T01:35:56;0.70;;;0.70;;
13441;SDS011;6793;55.662;13.114;2024-03-25T01:38:22;0.82;;;0.82;;
13441;SDS011;6793;55.662;13.114;2024-03-25T01:40:49;0.73;;;0.73;;
13441;SDS011;6793;55.662;13.114;2024-03-25T01:43:16;0.80;;;0.80;;
13441;SDS011;6793;55.662;13.114;2024-03-25T01:45:43;0.80;;;0.80;;
13441;SDS011;6793;55.662;13.114;2024-03-25T01:48:10;0.80;;;0.80;;
13441;SDS011;6793;55.662;13.114;2024-03-25T01:50:39;0.73;;;0.73;;
13441;SDS011;6793;55.662;13.114;2024-03-25T01:53:05;0.88;;;0.88;;
13441;SDS011;6793;55.662;13.114;2024-03-25T01:55:32;0.80;;;0.80;;
13441;SDS011;6793;55.662;13.114;2024-03-25T01:57:59;0.90;;;0.90;;
13441;SDS011;6793;55.662;13.114;2024-03-25T02:00:28;0.77;;;0.77;;
13441;SDS011;6793;55.662;13.114;2024-03-25T02:02:54;0.70;;;0.70;;
13441;SDS011;6793;55.662;13.114;2024-03-25T02:05:21;0.80;;;0.80;;
13441;SDS011;6793;55.662;13.114;2024-03-25T02:07:47;0.70;;;0.70;;
13441;SDS011;6793;55.662;13.114;2024-03-25T02:10:15;0.80;;;0.80;;
13441;SDS011;6793;55.662;13.114;2024-03-25T02:12:42;0.80;;;0.80;;
13441;SDS011;6793;55.662;13.114;2024-03-25T02:15:09;0.80;;;0.80;;
13441;SDS011;6793;55.662;13.114;2024-03-25T02:17:36;0.80;;;0.80;;
13441;SDS011;6793;55.662;13.114;2024-03-25T02:20:04;0.80;;;0.80;;
13441;SDS011;6793;55.662;13.114;2024-03-25T02:22:31;0.80;;;0.80;;
13441;SDS011;6793;55.662;13.114;2024-03-25T02:24:58;0.80;;;0.80;;
13441;SDS011;6793;55.662;13.114;2024-03-25T02:27:26;0.88;;;0.88;;
13441;SDS011;6793;55.662;13.114;2024-03-25T02:30:00;0.80;;;0.80;;
13441;SDS011;6793;55.662;13.114;2024-03-25T02:32:27;0.80;;;0.80;;
13441;SDS011;6793;55.662;13.114;2024-03-25T02:34:54;0.80;;;0.80;;
13441;SDS011;6793;55.662;13.114;2024-03-25T02:37:20;0.80;;;0.80;;
13441;SDS011;6793;55.662;13.114;2024-03-25T02:39:48;0.80;;;0.80;;
13441;SDS011;6793;55.662;13.114;2024-03-25T02:42:14;0.80;;;0.80;;
13441;SDS011;6793;55.662;13.114;2024-03-25T02:44:42;0.80;;;0.80;;
13441;SDS011;6793;55.662;13.114;2024-03-25T02:47:09;0.80;;;0.80;;
13441;SDS011;6793;55.662;13.114;2024-03-25T02:49:36;0.88;;;0.88;;
13441;SDS011;6793;55.662;13.114;2024-03-25T02:52:03;0.80;;;0.80;;
13441;SDS011;6793;55.662;13.114;2024-03-25T02:54:30;0.70;;;0.70;;
13441;SDS011;6793;55.662;13.114;2024-03-25T02:56:56;0.80;;;0.80;;
13441;SDS011;6793;55.662;13.114;2024-03-25T02:59:23;0.80;;;0.80;;
13441;SDS011;6793;55.662;13.114;2024-03-25T03:01:50;0.90;;;0.90;;
13441;SDS011;6793;55.662;13.114;2024-03-25T03:04:17;0.90;;;0.90;;
13441;SDS011;6793;55.662;13.114;2024-03-25T03:06:43;0.80;;;0.80;;
13441;SDS011;6793;55.662;13.114;2024-03-25T03:09:10;0.80;;;0.80;;
13441;SDS011;6793;55.662;13.114;2024-03-25T03:11:36;0.80;;;0.80;;
13441;SDS011;6793;55.662;13.114;2024-03-25T03:14:03;0.80;;;0.80;;
13441;SDS011;6793;55.662;13.114;2024-03-25T03:16:30;0.90;;;0.90;;
13441;SDS011;6793;55.662;13.114;2024-03-25T03:18:58;0.77;;;0.77;;
13441;SDS011;6793;55.662;13.114;2024-03-25T03:21:24;0.80;;;0.80;;
13441;SDS011;6793;55.662;13.114;2024-03-25T03:23:51;0.80;;;0.80;;
13441;SDS011;6793;55.662;13.114;2024-03-25T03:26:17;0.90;;;0.90;;
13441;SDS011;6793;55.662;13.114;2024-03-25T03:28:44;0.80;;;0.80;;
13441;SDS011;6793;55.662;13.114;2024-03-25T03:31:10;0.80;;;0.80;;
13441;SDS011;6793;55.662;13.114;2024-03-25T03:33:37;0.90;;;0.90;;
13441;SDS011;6793;55.662;13.114;2024-03-25T03:36:05;0.80;;;0.80;;
13441;SDS011;6793;55.662;13.114;2024-03-25T03:38:32;0.80;;;0.80;;
13441;SDS011;6793;55.662;13.114;2024-03-25T03:40:59;0.80;;;0.80;;
13441;SDS011;6793;55.662;13.114;2024-03-25T03:43:26;0.80;;;0.80;;
13441;SDS011;6793;55.662;13.114;2024-03-25T03:45:52;0.80;;;0.80;;
13441;SDS011;6793;55.662;13.114;2024-03-25T03:48:19;0.80;;;0.80;;
13441;SDS011;6793;55.662;13.114;2024-03-25T03:50:45;0.88;;;0.88;;
13441;SDS011;6793;55.662;13.114;2024-03-25T03:53:14;0.80;;;0.80;;
13441;SDS011;6793;55.662;13.114;2024-03-25T03:55:40;0.70;;;0.70;;
13441;SDS011;6793;55.662;13.114;2024-03-25T03:58:07;0.80;;;0.80;;
13441;SDS011;6793;55.662;13.114;2024-03-25T04:00:33;0.80;;;0.80;;
13441;SDS011;6793;55.662;13.114;2024-03-25T04:03:01;0.80;;;0.80;;
13441;SDS011;6793;55.662;13.114;2024-03-25T04:05:30;0.80;;;0.80;;
13441;SDS011;6793;55.662;13.114;2024-03-25T04:07:57;0.70;;;0.70;;
13441;SDS011;6793;55.662;13.114;2024-03-25T04:10:26;0.80;;;0.80;;
13441;SDS011;6793;55.662;13.114;2024-03-25T04:12:53;0.80;;;0.80;;
13441;SDS011;6793;55.662;13.114;2024-03-25T04:15:20;0.80;;;0.80;;
13441;SDS011;6793;55.662;13.114;2024-03-25T04:17:47;0.80;;;0.80;;
13441;SDS011;6793;55.662;13.114;2024-03-25T04:20:14;0.80;;;0.80;;
13441;SDS011;6793;55.662;13.114;2024-03-25T04:22:41;0.80;;;0.80;;
13441;SDS011;6793;55.662;13.114;2024-03-25T04:25:08;0.80;;;0.80;;
13441;SDS011;6793;55.662;13.114;2024-03-25T04:27:37;0.80;;;0.80;;
13441;SDS011;6793;55.662;13.114;2024-03-25T04:30:04;0.80;;;0.80;;
13441;SDS011;6793;55.662;13.114;2024-03-25T04:32:32;0.80;;;0.80;;
13441;SDS011;6793;55.662;13.114;2024-03-25T04:34:58;0.75;;;0.75;;
13441;SDS011;6793;55.662;13.114;2024-03-25T04:37:25;0.80;;;0.80;;
13441;SDS011;6793;55.662;13.114;2024-03-25T04:39:51;0.80;;;0.80;;
13441;SDS011;6793;55.662;13.114;2024-03-25T04:42:17;0.77;;;0.77;;
13441;SDS011;6793;55.662;13.114;2024-03-25T04:44:45;0.70;;;0.70;;
13441;SDS011;6793;55.662;13.114;2024-03-25T04:47:11;0.70;;;0.70;;
13441;SDS011;6793;55.662;13.114;2024-03-25T04:49:37;0.80;;;0.80;;
13441;SDS011;6793;55.662;13.114;2024-03-25T04:52:04;0.70;;;0.70;;
13441;SDS011;6793;55.662;13.114;2024-03-25T04:54:30;0.73;;;0.73;;
13441;SDS011;6793;55.662;13.114;2024-03-25T04:56:56;0.80;;;0.80;;
13441;SDS011;6793;55.662;13.114;2024-03-25T04:59:22;0.70;;;0.70;;
13441;SDS011;6793;55.662;13.114;2024-03-25T05:01:50;0.70;;;0.70;;
13441;SDS011;6793;55.662;13.114;2024-03-25T05:04:16;0.70;;;0.70;;
13441;SDS011;6793;55.662;13.114;2024-03-25T05:06:42;0.70;;;0.70;;
13441;SDS011;6793;55.662;13.114;2024-03-25T05:09:08;0.70;;;0.70;;
13441;SDS011;6793;55.662;13.114;2024-03-25T05:11:34;0.70;;;0.70;;
13441;SDS011;6793;55.662;13.114;2024-03-25T05:14:00;0.70;;;0.70;;
13441;SDS011;6793;55.662;13.114;2024-03-25T05:16:26;0.73;;;0.73;;
13441;SDS011;6793;55.662;13.114;2024-03-25T05:18:54;0.77;;;0.77;;
13441;SDS011;6793;55.662;13.114;2024-03-25T05:21:20;0.70;;;0.70;;
13441;SDS011;6793;55.662;13.114;2024-03-25T05:23:46;0.70;;;0.70;;
13441;SDS011;6793;55.662;13.114;2024-03-25T05:26:13;0.70;;;0.70;;
13441;SDS011;6793;55.662;13.114;2024-03-25T05:28:39;0.70;;;0.70;;
13441;SDS011;6793;55.662;13.114;2024-03-25T05:31:05;0.70;;;0.70;;
13441;SDS011;6793;55.662;13.114;2024-03-25T05:33:31;0.70;;;0.70;;
13441;SDS011;6793;55.662;13.114;2024-03-25T05:35:59;0.70;;;0.70;;
13441;SDS011;6793;55.662;13.114;2024-03-25T05:38:25;0.80;;;0.80;;
13441;SDS011;6793;55.662;13.114;2024-03-25T05:40:51;0.70;;;0.70;;
13441;SDS011;6793;55.662;13.114;2024-03-25T05:43:18;0.70;;;0.70;;
13441;SDS011;6793;55.662;13.114;2024-03-25T05:45:49;0.70;;;0.70;;
13441;SDS011;6793;55.662;13.114;2024-03-25T05:48:16;0.70;;;0.70;;
13441;SDS011;6793;55.662;13.114;2024-03-25T05:50:42;0.70;;;0.70;;
13441;SDS011;6793;55.662;13.114;2024-03-25T05:53:09;0.70;;;0.70;;
13441;SDS011;6793;55.662;13.114;2024-03-25T05:55:35;0.70;;;0.70;;
13441;SDS011;6793;55.662;13.114;2024-03-25T05:58:02;0.60;;;0.60;;
13441;SDS011;6793;55.662;13.114;2024-03-25T06:00:28;0.60;;;0.60;;
13441;SDS011;6793;55.662;13.114;2024-03-25T06:02:54;0.60;;;0.60;;
13441;SDS011;6793;55.662;13.114;2024-03-25T06:05:20;0.63;;;0.63;;
13441;SDS011;6793;55.662;13.114;2024-03-25T06:07:46;0.60;;;0.60;;
13441;SDS011;6793;55.662;13.114;2024-03-25T06:10:14;0.70;;;0.70;;
13441;SDS011;6793;55.662;13.114;2024-03-25T06:12:40;0.60;;;0.60;;
13441;SDS011;6793;55.662;13.114;2024-03-25T06:15:07;0.55;;;0.55;;
13441;SDS011;6793;55.662;13.114;2024-03-25T06:17:33;0.60;;;0.60;;
13441;SDS011;6793;55.662;13.114;2024-03-25T06:19:59;0.60;;;0.60;;
13441;SDS011;6793;55.662;13.114;2024-03-25T06:22:25;0.60;;;0.60;;
13441;SDS011;6793;55.662;13.114;2024-03-25T06:24:51;0.50;;;0.50;;
13441;SDS011;6793;55.662;13.114;2024-03-25T06:27:19;0.55;;;0.55;;
13441;SDS011;6793;55.662;13.114;2024-03-25T06:29:45;0.60;;;0.60;;
13441;SDS011;6793;55.662;13.114;2024-03-25T06:32:11;0.60;;;0.60;;
13441;SDS011;6793;55.662;13.114;2024-03-25T06:34:56;0.60;;;0.60;;
13441;SDS011;6793;55.662;13.114;2024-03-25T06:37:23;0.50;;;0.50;;
13441;SDS011;6793;55.662;13.114;2024-03-25T06:39:49;0.50;;;0.50;;
13441;SDS011;6793;55.662;13.114;2024-03-25T06:42:15;0.50;;;0.50;;
13441;SDS011;6793;55.662;13.114;2024-03-25T06:44:42;0.60;;;0.60;;
13441;SDS011;6793;55.662;13.114;2024-03-25T06:47:09;0.50;;;0.50;;
13441;SDS011;6793;55.662;13.114;2024-03-25T06:49:35;0.50;;;0.50;;
13441;SDS011;6793;55.662;13.114;2024-03-25T06:52:01;0.50;;;0.50;;
13441;SDS011;6793;55.662;13.114;2024-03-25T06:54:28;0.50;;;0.50;;
13441;SDS011;6793;55.662;13.114;2024-03-25T06:56:55;0.50;;;0.50;;
13441;SDS011;6793;55.662;13.114;2024-03-25T06:59:22;0.50;;;0.50;;
13441;SDS011;6793;55.662;13.114;2024-03-25T07:01:49;0.50;;;0.50;;
13441;SDS011;6793;55.662;13.114;2024-03-25T07:04:15;0.50;;;0.50;;
13441;SDS011;6793;55.662;13.114;2024-03-25T07:06:41;0.50;;;0.50;;
13441;SDS011;6793;55.662;13.114;2024-03-25T07:09:07;0.50;;;0.50;;
13441;SDS011;6793;55.662;13.114;2024-03-25T07:11:34;0.50;;;0.50;;
13441;SDS011;6793;55.662;13.114;2024-03-25T07:14:00;0.40;;;0.40;;
13441;SDS011;6793;55.662;13.114;2024-03-25T07:16:26;0.40;;;0.40;;
13441;SDS011;6793;55.662;13.114;2024-03-25T07:18:54;0.50;;;0.50;;
13441;SDS011;6793;55.662;13.114;2024-03-25T07:21:20;0.50;;;0.50;;
13441;SDS011;6793;55.662;13.114;2024-03-25T07:23:46;0.40;;;0.40;;
13441;SDS011;6793;55.662;13.114;2024-03-25T07:26:12;0.40;;;0.40;;
13441;SDS011;6793;55.662;13.114;2024-03-25T07:28:38;0.40;;;0.40;;
13441;SDS011;6793;55.662;13.114;2024-03-25T07:31:04;0.40;;;0.40;;
13441;SDS011;6793;55.662;13.114;2024-03-25T07:33:30;0.30;;;0.30;;
13441;SDS011;6793;55.662;13.114;2024-03-25T07:35:58;0.30;;;0.30;;
13441;SDS011;6793;55.662;13.114;2024-03-25T07:38:24;0.40;;;0.40;;
13441;SDS011;6793;55.662;13.114;2024-03-25T07:40:50;0.30;;;0.30;;
13441;SDS011;6793;55.662;13.114;2024-03-25T07:43:16;0.40;;;0.40;;
13441;SDS011;6793;55.662;13.114;2024-03-25T07:45:43;0.50;;;0.50;;
13441;SDS011;6793;55.662;13.114;2024-03-25T07:48:09;0.43;;;0.43;;
13441;SDS011;6793;55.662;13.114;2024-03-25T07:50:35;0.50;;;0.50;;
13441;SDS011;6793;55.662;13.114;2024-03-25T07:53:03;0.50;;;0.50;;
13441;SDS011;6793;55.662;13.114;2024-03-25T07:55:29;0.50;;;0.50;;
13441;SDS011;6793;55.662;13.114;2024-03-25T07:57:56;0.40;;;0.40;;
13441;SDS011;6793;55.662;13.114;2024-03-25T08:00:22;0.50;;;0.50;;
13441;SDS011;6793;55.662;13.114;2024-03-25T08:02:48;0.50;;;0.50;;
13441;SDS011;6793;55.662;13.114;2024-03-25T08:05:14;0.50;;;0.50;;
13441;SDS011;6793;55.662;13.114;2024-03-25T08:07:40;0.52;;;0.52;;
13441;SDS011;6793;55.662;13.114;2024-03-25T08:10:09;0.50;;;0.50;;
13441;SDS011;6793;55.662;13.114;2024-03-25T08:12:35;0.60;;;0.60;;
13441;SDS011;6793;55.662;13.114;2024-03-25T08:15:01;0.60;;;0.60;;
13441;SDS011;6793;55.662;13.114;2024-03-25T08:17:27;0.60;;;0.60;;
13441;SDS011;6793;55.662;13.114;2024-03-25T08:19:53;0.60;;;0.60;;
13441;SDS011;6793;55.662;13.114;2024-03-25T08:22:20;0.70;;;0.70;;
13441;SDS011;6793;55.662;13.114;2024-03-25T08:24:46;0.60;;;0.60;;
13441;SDS011;6793;55.662;13.114;2024-03-25T08:27:13;0.70;;;0.70;;
13441;SDS011;6793;55.662;13.114;2024-03-25T08:29:40;0.60;;;0.60;;
13441;SDS011;6793;55.662;13.114;2024-03-25T08:32:06;0.70;;;0.70;;
13441;SDS011;6793;55.662;13.114;2024-03-25T08:34:32;0.60;;;0.60;;
13441;SDS011;6793;55.662;13.114;2024-03-25T08:36:58;0.60;;;0.60;;
13441;SDS011;6793;55.662;13.114;2024-03-25T08:39:25;0.60;;;0.60;;
13441;SDS011;6793;55.662;13.114;2024-03-25T08:41:51;0.60;;;0.60;;
13441;SDS011;6793;55.662;13.114;2024-03-25T08:44:18;0.60;;;0.60;;
13441;SDS011;6793;55.662;13.114;2024-03-25T08:46:45;0.70;;;0.70;;
13441;SDS011;6793;55.662;13.114;2024-03-25T08:49:12;0.70;;;0.70;;
13441;SDS011;6793;55.662;13.114;2024-03-25T08:51:38;0.80;;;0.80;;
13441;SDS011;6793;55.662;13.114;2024-03-25T08:54:05;0.70;;;0.70;;
13441;SDS011;6793;55.662;13.114;2024-03-25T08:56:31;0.70;;;0.70;;
13441;SDS011;6793;55.662;13.114;2024-03-25T08:58:58;0.60;;;0.60;;
13441;SDS011;6793;55.662;13.114;2024-03-25T09:01:25;0.60;;;0.60;;
13441;SDS011;6793;55.662;13.114;2024-03-25T09:03:51;0.60;;;0.60;;
13441;SDS011;6793;55.662;13.114;2024-03-25T09:06:18;0.70;;;0.70;;
13441;SDS011;6793;55.662;13.114;2024-03-25T09:08:44;0.70;;;0.70;;
13441;SDS011;6793;55.662;13.114;2024-03-25T09:11:25;0.60;;;0.60;;
13441;SDS011;6793;55.662;13.114;2024-03-25T09:13:51;0.75;;;0.75;;
13441;SDS011;6793;55.662;13.114;2024-03-25T09:16:17;0.70;;;0.70;;
13441;SDS011;6793;55.662;13.114;2024-03-25T09:18:45;0.70;;;0.70;;
13441;SDS011;6793;55.662;13.114;2024-03-25T09:21:11;0.63;;;0.63;;
13441;SDS011;6793;55.662;13.114;2024-03-25T09:23:37;0.60;;;0.60;;
13441;SDS011;6793;55.662;13.114;2024-03-25T09:26:04;0.70;;;0.70;;
13441;SDS011;6793;55.662;13.114;2024-03-25T09:28:30;0.70;;;0.70;;
13441;SDS011;6793;55.662;13.114;2024-03-25T09:30:56;0.60;;;0.60;;
13441;SDS011;6793;55.662;13.114;2024-03-25T09:33:22;0.60;;;0.60;;
13441;SDS011;6793;55.662;13.114;2024-03-25T09:35:50;0.70;;;0.70;;
13441;SDS011;6793;55.662;13.114;2024-03-25T09:38:16;0.60;;;0.60;;
13441;SDS011;6793;55.662;13.114;2024-03-25T09:40:42;0.90;;;0.90;;
13441;SDS011;6793;55.662;13.114;2024-03-25T09:43:10;0.85;;;0.85;;
13441;SDS011;6793;55.662;13.114;2024-03-25T09:45:38;0.80;;;0.80;;
13441;SDS011;6793;55.662;13.114;2024-03-25T09:48:05;0.80;;;0.80;;
13441;SDS011;6793;55.662;13.114;2024-03-25T09:50:33;0.80;;;0.80;;
13441;SDS011;6793;55.662;13.114;2024-03-25T09:53:01;1.00;;;1.00;;
13441;SDS011;6793;55.662;13.114;2024-03-25T09:55:27;0.90;;;0.90;;
13441;SDS011;6793;55.662;13.114;2024-03-25T09:57:53;0.95;;;0.95;;
13441;SDS011;6793;55.662;13.114;2024-03-25T10:00:19;1.00;;;1.00;;
13441;SDS011;6793;55.662;13.114;2024-03-25T10:02:45;0.90;;;0.90;;
13441;SDS011;6793;55.662;13.114;2024-03-25T10:05:12;1.10;;;1.10;;
13441;SDS011;6793;55.662;13.114;2024-03-25T10:07:38;1.00;;;1.00;;
13441;SDS011;6793;55.662;13.114;2024-03-25T10:10:06;0.80;;;0.80;;
13441;SDS011;6793;55.662;13.114;2024-03-25T10:12:35;1.10;;;1.10;;
13441;SDS011;6793;55.662;13.114;2024-03-25T10:15:01;0.80;;;0.80;;
13441;SDS011;6793;55.662;13.114;2024-03-25T10:17:29;0.80;;;0.80;;
13441;SDS011;6793;55.662;13.114;2024-03-25T10:19:56;0.80;;;0.80;;
13441;SDS011;6793;55.662;13.114;2024-03-25T10:22:22;0.80;;;0.80;;
13441;SDS011;6793;55.662;13.114;2024-03-25T10:24:48;0.80;;;0.80;;
13441;SDS011;6793;55.662;13.114;2024-03-25T10:27:21;0.80;;;0.80;;
13441;SDS011;6793;55.662;13.114;2024-03-25T10:29:48;0.68;;;0.68;;
13441;SDS011;6793;55.662;13.114;2024-03-25T10:32:14;0.80;;;0.80;;
13441;SDS011;6793;55.662;13.114;2024-03-25T10:34:40;0.80;;;0.80;;
13441;SDS011;6793;55.662;13.114;2024-03-25T10:37:08;0.80;;;0.80;;
13441;SDS011;6793;55.662;13.114;2024-03-25T10:39:35;0.90;;;0.90;;
13441;SDS011;6793;55.662;13.114;2024-03-25T10:42:03;0.70;;;0.70;;
13441;SDS011;6793;55.662;13.114;2024-03-25T10:44:32;0.90;;;0.90;;
13441;SDS011;6793;55.662;13.114;2024-03-25T10:47:00;0.80;;;0.80;;
13441;SDS011;6793;55.662;13.114;2024-03-25T10:49:31;0.80;;;0.80;;
13441;SDS011;6793;55.662;13.114;2024-03-25T10:51:58;0.80;;;0.80;;
13441;SDS011;6793;55.662;13.114;2024-03-25T10:54:25;0.90;;;0.90;;
13441;SDS011;6793;55.662;13.114;2024-03-25T10:56:51;0.90;;;0.90;;
13441;SDS011;6793;55.662;13.114;2024-03-25T10:59:17;1.00;;;1.00;;
13441;SDS011;6793;55.662;13.114;2024-03-25T11:01:45;1.00;;;1.00;;
13441;SDS011;6793;55.662;13.114;2024-03-25T11:04:12;1.08;;;1.08;;
13441;SDS011;6793;55.662;13.114;2024-03-25T11:06:38;1.10;;;1.10;;
13441;SDS011;6793;55.662;13.114;2024-03-25T11:09:04;1.10;;;1.10;;
13441;SDS011;6793;55.662;13.114;2024-03-25T11:11:31;0.98;;;0.98;;
13441;SDS011;6793;55.662;13.114;2024-03-25T11:13:57;1.10;;;1.10;;
13441;SDS011;6793;55.662;13.114;2024-03-25T11:16:28;1.00;;;1.00;;
13441;SDS011;6793;55.662;13.114;2024-03-25T11:18:59;1.00;;;1.00;;
13441;SDS011;6793;55.662;13.114;2024-03-25T11:21:26;1.00;;;1.00;;
13441;SDS011;6793;55.662;13.114;2024-03-25T11:23:52;0.90;;;0.90;;
13441;SDS011;6793;55.662;13.114;2024-03-25T11:26:19;0.80;;;0.80;;
13441;SDS011;6793;55.662;13.114;2024-03-25T11:28:45;0.80;;;0.80;;
13441;SDS011;6793;55.662;13.114;2024-03-25T11:31:11;0.88;;;0.88;;
13441;SDS011;6793;55.662;13.114;2024-03-25T11:33:37;0.90;;;0.90;;
13441;SDS011;6793;55.662;13.114;2024-03-25T11:36:06;0.88;;;0.88;;
13441;SDS011;6793;55.662;13.114;2024-03-25T11:38:32;0.98;;;0.98;;
13441;SDS011;6793;55.662;13.114;2024-03-25T11:40:58;0.90;;;0.90;;
13441;SDS011;6793;55.662;13.114;2024-03-25T11:43:24;1.00;;;1.00;;
13441;SDS011;6793;55.662;13.114;2024-03-25T11:45:51;1.00;;;1.00;;
13441;SDS011;6793;55.662;13.114;2024-03-25T11:48:17;1.00;;;1.00;;
13441;SDS011;6793;55.662;13.114;2024-03-25T11:50:44;1.00;;;1.00;;
13441;SDS011;6793;55.662;13.114;2024-03-25T11:53:13;0.90;;;0.90;;
13441;SDS011;6793;55.662;13.114;2024-03-25T11:55:40;1.00;;;1.00;;
13441;SDS011;6793;55.662;13.114;2024-03-25T11:58:06;0.90;;;0.90;;
13441;SDS011;6793;55.662;13.114;2024-03-25T12:00:33;1.00;;;1.00;;
13441;SDS011;6793;55.662;13.114;2024-03-25T12:02:59;1.00;;;1.00;;
13441;SDS011;6793;55.662;13.114;2024-03-25T12:05:26;1.00;;;1.00;;
13441;SDS011;6793;55.662;13.114;2024-03-25T12:07:52;0.90;;;0.90;;
13441;SDS011;6793;55.662;13.114;2024-03-25T12:10:19;0.90;;;0.90;;
13441;SDS011;6793;55.662;13.114;2024-03-25T12:13:04;0.85;;;0.85;;
13441;SDS011;6793;55.662;13.114;2024-03-25T12:15:30;0.90;;;0.90;;
13441;SDS011;6793;55.662;13.114;2024-03-25T12:17:56;0.80;;;0.80;;
13441;SDS011;6793;55.662;13.114;2024-03-25T12:20:22;0.90;;;0.90;;
13441;SDS011;6793;55.662;13.114;2024-03-25T12:22:49;0.90;;;0.90;;
13441;SDS011;6793;55.662;13.114;2024-03-25T12:25:15;1.00;;;1.00;;
13441;SDS011;6793;55.662;13.114;2024-03-25T12:27:45;0.90;;;0.90;;
13441;SDS011;6793;55.662;13.114;2024-03-25T12:30:12;1.00;;;1.00;;
13441;SDS011;6793;55.662;13.114;2024-03-25T12:32:38;0.98;;;0.98;;
13441;SDS011;6793;55.662;13.114;2024-03-25T12:35:08;0.95;;;0.95;;
13441;SDS011;6793;55.662;13.114;2024-03-25T12:37:35;0.90;;;0.90;;
13441;SDS011;6793;55.662;13.114;2024-03-25T12:40:02;0.80;;;0.80;;
13441;SDS011;6793;55.662;13.114;2024-03-25T12:42:28;0.95;;;0.95;;
13441;SDS011;6793;55.662;13.114;2024-03-25T12:44:57;0.90;;;0.90;;
13441;SDS011;6793;55.662;13.114;2024-03-25T12:47:23;1.00;;;1.00;;
13441;SDS011;6793;55.662;13.114;2024-03-25T12:49:49;1.00;;;1.00;;
13441;SDS011;6793;55.662;13.114;2024-03-25T12:52:15;0.93;;;0.93;;
13441;SDS011;6793;55.662;13.114;2024-03-25T12:54:41;1.00;;;1.00;;
13441;SDS011;6793;55.662;13.114;2024-03-25T12:57:08;0.90;;;0.90;;
13441;SDS011;6793;55.662;13.114;2024-03-25T12:59:34;1.00;;;1.00;;
13441;SDS011;6793;55.662;13.114;2024-03-25T13:02:01;0.98;;;0.98;;
13441;SDS011;6793;55.662;13.114;2024-03-25T13:04:27;0.90;;;0.90;;
13441;SDS011;6793;55.662;13.114;2024-03-25T13:06:54;1.10;;;1.10;;
13441;SDS011;6793;55.662;13.114;2024-03-25T13:09:20;1.10;;;1.10;;
13441;SDS011;6793;55.662;13.114;2024-03-25T13:11:46;0.90;;;0.90;;
13441;SDS011;6793;55.662;13.114;2024-03-25T13:14:12;0.95;;;0.95;;
13441;SDS011;6793;55.662;13.114;2024-03-25T13:16:39;1.10;;;1.10;;
13441;SDS011;6793;55.662;13.114;2024-03-25T13:19:06;1.10;;;1.10;;
13441;SDS011;6793;55.662;13.114;2024-03-25T13:21:33;0.90;;;0.90;;
13441;SDS011;6793;55.662;13.114;2024-03-25T13:23:59;1.00;;;1.00;;
13441;SDS011;6793;55.662;13.114;2024-03-25T13:26:26;0.90;;;0.90;;
13441;SDS011;6793;55.662;13.114;2024-03-25T13:28:53;0.85;;;0.85;;
13441;SDS011;6793;55.662;13.114;2024-03-25T13:31:19;0.90;;;0.90;;
13441;SDS011;6793;55.662;13.114;2024-03-25T13:33:45;0.90;;;0.90;;
13441;SDS011;6793;55.662;13.114;2024-03-25T13:36:13;1.00;;;1.00;;
13441;SDS011;6793;55.662;13.114;2024-03-25T13:38:39;0.90;;;0.90;;
13441;SDS011;6793;55.662;13.114;2024-03-25T13:41:05;0.90;;;0.90;;
13441;SDS011;6793;55.662;13.114;2024-03-25T13:43:31;0.90;;;0.90;;
13441;SDS011;6793;55.662;13.114;2024-03-25T13:45:57;0.90;;;0.90;;
13441;SDS011;6793;55.662;13.114;2024-03-25T13:48:23;0.98;;;0.98;;
13441;SDS011;6793;55.662;13.114;2024-03-25T13:50:52;0.90;;;0.90;;
13441;SDS011;6793;55.662;13.114;2024-03-25T13:53:20;0.95;;;0.95;;
13441;SDS011;6793;55.662;13.114;2024-03-25T13:55:47;0.90;;;0.90;;
13441;SDS011;6793;55.662;13.114;2024-03-25T13:58:13;0.90;;;0.90;;
13441;SDS011;6793;55.662;13.114;2024-03-25T14:00:39;0.90;;;0.90;;
13441;SDS011;6793;55.662;13.114;2024-03-25T14:03:05;1.00;;;1.00;;
13441;SDS011;6793;55.662;13.114;2024-03-25T14:05:31;1.00;;;1.00;;
13441;SDS011;6793;55.662;13.114;2024-03-25T14:07:57;1.00;;;1.00;;
13441;SDS011;6793;55.662;13.114;2024-03-25T14:10:25;1.05;;;1.05;;
13441;SDS011;6793;55.662;13.114;2024-03-25T14:12:51;0.80;;;0.80;;
13441;SDS011;6793;55.662;13.114;2024-03-25T14:15:17;0.90;;;0.90;;
13441;SDS011;6793;55.662;13.114;2024-03-25T14:17:43;1.00;;;1.00;;
13441;SDS011;6793;55.662;13.114;2024-03-25T14:20:10;1.00;;;1.00;;
13441;SDS011;6793;55.662;13.114;2024-03-25T14:22:36;1.00;;;1.00;;
13441;SDS011;6793;55.662;13.114;2024-03-25T14:25:02;1.00;;;1.00;;
13441;SDS011;6793;55.662;13.114;2024-03-25T14:27:30;1.10;;;1.10;;
13441;SDS011;6793;55.662;13.114;2024-03-25T14:29:56;1.02;;;1.02;;
13441;SDS011;6793;55.662;13.114;2024-03-25T14:32:22;1.10;;;1.10;;
13441;SDS011;6793;55.662;13.114;2024-03-25T14:34:48;1.17;;;1.17;;
13441;SDS011;6793;55.662;13.114;2024-03-25T14:37:15;1.10;;;1.10;;
13441;SDS011;6793;55.662;13.114;2024-03-25T14:39:41;1.00;;;1.00;;
13441;SDS011;6793;55.662;13.114;2024-03-25T14:42:08;1.00;;;1.00;;
13441;SDS011;6793;55.662;13.114;2024-03-25T14:44:36;1.02;;;1.02;;